createdAt,value
2023-04-07T00:02:22.376Z,12.13
2023-04-07T00:04:56.559Z,12.12
2023-04-07T00:07:29.578Z,12.13
2023-04-07T00:10:03.685Z,12.13
2023-04-07T00:12:36.793Z,12.12
2023-04-07T00:15:09.976Z,12.13
2023-04-07T00:17:42.819Z,12.12
2023-04-07T00:20:15.681Z,12.10
2023-04-07T00:22:48.368Z,12.09
2023-04-07T00:25:22.482Z,12.11
2023-04-07T00:27:55.163Z,12.09
2023-04-07T00:30:27.848Z,12.10
2023-04-07T00:33:00.773Z,12.11
2023-04-07T00:35:33.404Z,12.09
2023-04-07T00:38:06.134Z,12.10
2023-04-07T00:40:40.206Z,12.09
2023-04-07T00:43:13.220Z,12.09
2023-04-07T00:45:46.314Z,12.07
2023-04-07T00:48:19.180Z,12.09
2023-04-07T00:50:52.257Z,12.09
2023-04-07T00:53:25.344Z,12.08
2023-04-07T00:55:59.524Z,12.07
2023-04-07T00:58:32.168Z,12.07
2023-04-07T01:01:08.526Z,12.07
2023-04-07T01:03:46.520Z,12.07
2023-04-07T01:06:21.423Z,12.06
2023-04-07T01:08:55.814Z,12.05
2023-04-07T01:11:32.260Z,12.07
2023-04-07T01:14:05.865Z,12.06
2023-04-07T01:16:41.699Z,12.05
2023-04-07T01:19:17.127Z,12.04
2023-04-07T01:21:51.694Z,12.03
2023-04-07T01:24:35.944Z,12.04
2023-04-07T01:27:15.858Z,12.03
2023-04-07T01:29:50.936Z,12.03
2023-04-07T01:32:25.172Z,12.01
2023-04-07T01:34:59.215Z,12.01
2023-04-07T01:37:32.041Z,12.00
2023-04-07T01:40:05.276Z,12.01
2023-04-07T01:42:39.616Z,12.00
2023-04-07T01:45:14.265Z,12.00
2023-04-07T01:47:48.165Z,11.98
2023-04-07T01:50:22.198Z,11.98
2023-04-07T01:52:55.234Z,11.99
2023-04-07T01:55:28.017Z,11.96
2023-04-07T01:58:04.917Z,11.95
2023-04-07T02:00:39.090Z,11.94
2023-04-07T02:03:20.818Z,11.93
2023-04-07T02:05:56.414Z,11.93
2023-04-07T02:08:31.169Z,11.90
2023-04-07T02:11:07.927Z,11.90
2023-04-07T02:13:41.318Z,11.87
2023-04-07T02:16:16.208Z,11.87
2023-04-07T02:18:49.236Z,11.84
2023-04-07T02:21:22.923Z,11.80
2023-04-07T02:23:56.009Z,11.79
2023-04-07T02:26:29.160Z,11.76
2023-04-07T02:29:01.908Z,11.72
2023-04-07T02:31:36.387Z,11.69
2023-04-07T02:34:09.000Z,11.68
2023-04-07T02:36:41.781Z,11.65
2023-04-07T02:39:14.461Z,11.64
2023-04-07T02:41:47.115Z,11.62
2023-04-07T02:44:19.792Z,11.61
2023-04-07T02:46:53.896Z,11.58
2023-04-07T02:49:26.519Z,11.57
2023-04-07T02:51:59.137Z,11.56
2023-04-07T02:54:31.848Z,11.54
2023-04-07T02:57:04.551Z,11.54
2023-04-07T02:59:37.158Z,11.50
2023-04-07T03:02:11.586Z,11.49
2023-04-07T03:04:44.353Z,11.47
2023-04-07T03:07:17.080Z,11.43
2023-04-07T03:09:49.726Z,11.40
2023-04-07T03:12:22.488Z,11.35
2023-04-07T03:14:55.078Z,11.29
2023-04-07T03:17:29.458Z,11.22
2023-04-07T03:20:02.209Z,11.14
2023-04-07T03:22:35.014Z,11.05
2023-04-07T03:25:08.036Z,10.94
2023-04-07T03:27:40.740Z,10.83
2023-04-07T03:30:13.707Z,10.72
2023-04-07T03:32:47.955Z,10.62
2023-04-07T03:35:20.650Z,10.52
2023-04-07T03:37:53.402Z,10.41
2023-04-07T03:40:26.086Z,10.30
2023-04-07T03:42:58.768Z,10.23
2023-04-07T03:45:31.632Z,10.13
2023-04-07T03:48:06.124Z,10.07
2023-04-07T03:50:38.875Z,10.01
2023-04-07T03:53:11.599Z,9.98
2023-04-07T03:55:44.861Z,9.93
2023-04-07T03:58:17.665Z,9.92
2023-04-07T04:00:50.369Z,9.91
2023-04-07T04:03:24.637Z,9.90
2023-04-07T04:05:57.601Z,9.90
2023-04-07T04:08:30.487Z,9.93
2023-04-07T04:11:03.110Z,9.93
2023-04-07T04:13:36.551Z,9.95
2023-04-07T04:16:09.368Z,9.96
2023-04-07T04:18:43.556Z,9.99
2023-04-07T04:21:16.797Z,9.99
2023-04-07T04:23:49.446Z,10.01
2023-04-07T04:26:25.967Z,10.03
2023-04-07T04:28:58.747Z,10.03
2023-04-07T04:31:31.458Z,10.05
2023-04-07T04:34:05.547Z,10.06
2023-04-07T04:36:39.091Z,10.07
2023-04-07T04:39:11.735Z,10.10
2023-04-07T04:41:44.386Z,10.13
2023-04-07T04:44:17.176Z,10.14
2023-04-07T04:46:49.923Z,10.16
2023-04-07T04:49:24.302Z,10.16
2023-04-07T04:51:56.968Z,10.18
2023-04-07T04:54:30.329Z,10.17
2023-04-07T04:57:03.269Z,10.15
2023-04-07T04:59:35.901Z,10.14
2023-04-07T05:02:08.719Z,10.11
2023-04-07T05:04:43.130Z,10.07
2023-04-07T05:07:15.991Z,10.05
2023-04-07T05:09:48.700Z,10.00
2023-04-07T05:12:21.776Z,9.98
2023-04-07T05:14:54.474Z,9.93
2023-04-07T05:17:27.222Z,9.90
2023-04-07T05:20:01.230Z,9.90
2023-04-07T05:22:34.024Z,9.87
2023-04-07T05:25:07.230Z,9.88
2023-04-07T05:27:39.871Z,9.88
2023-04-07T05:30:13.122Z,9.89
2023-04-07T05:32:45.870Z,9.90
2023-04-07T05:35:20.189Z,9.91
2023-04-07T05:37:52.828Z,9.94
2023-04-07T05:40:25.718Z,9.97
2023-04-07T05:42:58.401Z,10.02
2023-04-07T05:45:31.337Z,10.06
2023-04-07T05:48:04.141Z,10.09
2023-04-07T05:50:38.577Z,10.11
2023-04-07T05:53:11.209Z,10.17
2023-04-07T05:55:43.826Z,10.21
2023-04-07T05:58:16.430Z,10.28
2023-04-07T06:00:49.088Z,10.32
2023-04-07T06:03:21.813Z,10.37
2023-04-07T06:05:56.124Z,10.39
2023-04-07T06:08:28.755Z,10.46
2023-04-07T06:11:01.871Z,10.53
2023-04-07T06:13:34.708Z,10.61
2023-04-07T06:16:07.624Z,10.68
2023-04-07T06:18:42.127Z,10.76
2023-04-07T06:21:16.504Z,10.83
2023-04-07T06:23:49.422Z,10.92
2023-04-07T06:26:23.625Z,11.01
2023-04-07T06:28:56.599Z,11.08
2023-04-07T06:31:29.538Z,11.15
2023-04-07T06:34:02.220Z,11.22
2023-04-07T06:36:36.296Z,11.28
2023-04-07T06:39:09.009Z,11.33
2023-04-07T06:41:44.132Z,11.37
2023-04-07T06:44:17.206Z,11.42
2023-04-07T06:46:53.326Z,11.45
2023-04-07T06:49:26.114Z,11.47
2023-04-07T06:52:00.375Z,11.49
2023-04-07T06:54:33.051Z,11.49
2023-04-07T06:57:06.838Z,11.51
2023-04-07T06:59:39.496Z,11.50
2023-04-07T07:02:12.474Z,11.51
2023-04-07T07:04:45.682Z,11.55
2023-04-07T07:07:19.748Z,11.60
2023-04-07T07:09:52.363Z,11.66
2023-04-07T07:12:25.298Z,11.75
2023-04-07T07:14:57.972Z,11.85
2023-04-07T07:17:31.063Z,11.96
2023-04-07T07:20:03.793Z,12.11
2023-04-07T07:22:37.800Z,12.23
2023-04-07T07:25:10.797Z,12.36
2023-04-07T07:27:43.520Z,12.52
2023-04-07T07:30:16.372Z,12.63
2023-04-07T07:32:49.648Z,12.75
2023-04-07T07:35:22.547Z,12.88
2023-04-07T07:37:56.629Z,13.00
2023-04-07T07:40:29.350Z,13.09
2023-04-07T07:43:02.020Z,13.20
2023-04-07T07:45:34.726Z,13.31
2023-04-07T07:48:07.585Z,13.39
2023-04-07T07:50:40.649Z,13.49
2023-04-07T07:53:14.759Z,13.56
2023-04-07T07:55:47.511Z,13.62
2023-04-07T07:58:20.406Z,13.66
2023-04-07T08:00:53.099Z,13.69
2023-04-07T08:03:25.861Z,13.73
2023-04-07T08:05:58.622Z,13.78
2023-04-07T08:08:32.695Z,13.80
2023-04-07T08:11:05.679Z,13.80
2023-04-07T08:13:38.392Z,13.82
2023-04-07T08:16:11.108Z,13.83
2023-04-07T08:18:43.991Z,13.83
2023-04-07T08:21:16.769Z,13.82
2023-04-07T08:23:51.112Z,13.81
2023-04-07T08:26:24.256Z,13.80
2023-04-07T08:28:57.238Z,13.80
2023-04-07T08:31:29.940Z,13.79
2023-04-07T08:34:02.735Z,13.78
2023-04-07T08:36:35.645Z,13.78
2023-04-07T08:39:09.856Z,13.79
2023-04-07T08:41:44.755Z,13.80
2023-04-07T08:44:17.989Z,13.85
2023-04-07T08:46:52.710Z,13.88
2023-04-07T08:49:26.015Z,13.95
2023-04-07T08:52:00.581Z,14.02
2023-04-07T08:54:35.208Z,14.11
2023-04-07T08:57:09.462Z,14.21
2023-04-07T08:59:44.726Z,14.31
2023-04-07T09:02:17.476Z,14.44
2023-04-07T09:04:50.532Z,14.59
2023-04-07T09:07:23.187Z,14.75
2023-04-07T09:09:58.462Z,14.90
2023-04-07T09:12:31.591Z,15.05
2023-04-07T09:15:04.872Z,15.19
2023-04-07T09:17:37.525Z,15.34
2023-04-07T09:20:10.660Z,15.45
2023-04-07T09:22:45.656Z,15.58
2023-04-07T09:25:20.607Z,15.70
2023-04-07T09:27:56.813Z,15.80
2023-04-07T09:30:30.306Z,15.91
2023-04-07T09:33:03.276Z,16.01
2023-04-07T09:35:52.322Z,16.12
2023-04-07T09:38:33.576Z,16.25
2023-04-07T09:41:08.952Z,16.34
2023-04-07T09:43:42.340Z,16.46
2023-04-07T09:46:15.946Z,16.55
2023-04-07T09:48:48.808Z,16.66
2023-04-07T09:51:22.533Z,16.79
2023-04-07T09:53:55.185Z,16.89
2023-04-07T09:56:30.481Z,17.04
2023-04-07T09:59:03.294Z,17.16
2023-04-07T10:01:37.023Z,17.30
2023-04-07T10:04:09.948Z,17.45
2023-04-07T10:06:43.839Z,17.54
2023-04-07T10:09:17.925Z,17.65
2023-04-07T10:11:53.095Z,17.76
2023-04-07T10:14:28.454Z,17.81
2023-04-07T10:17:01.697Z,17.88
2023-04-07T10:19:35.714Z,17.91
2023-04-07T10:22:08.741Z,17.95
2023-04-07T10:24:48.190Z,18.01
2023-04-07T10:27:28.502Z,18.06
2023-04-07T10:30:02.291Z,18.13
2023-04-07T10:32:46.974Z,18.19
2023-04-07T10:35:19.745Z,18.28
2023-04-07T10:38:11.787Z,18.37
2023-04-07T10:40:44.804Z,18.45
2023-04-07T10:43:37.812Z,18.53
2023-04-07T10:46:10.570Z,18.60
2023-04-07T10:48:43.378Z,18.66
2023-04-07T10:51:17.889Z,18.71
2023-04-07T10:54:27.336Z,18.75
2023-04-07T10:57:12.170Z,18.77
2023-04-07T10:59:59.747Z,18.80
2023-04-07T11:02:37.139Z,18.85
2023-04-07T11:05:10.084Z,18.88
2023-04-07T11:07:51.061Z,18.93
2023-04-07T11:10:23.934Z,18.95
2023-04-07T11:13:03.699Z,18.99
2023-04-07T11:15:39.669Z,19.02
2023-04-07T11:18:16.308Z,19.05
2023-04-07T11:20:50.811Z,19.07
2023-04-07T11:23:25.388Z,19.07
2023-04-07T11:26:01.907Z,19.09
2023-04-07T11:28:34.654Z,19.08
2023-04-07T11:31:07.410Z,19.09
2023-04-07T11:33:43.799Z,19.07
2023-04-07T11:36:27.163Z,19.07
2023-04-07T11:38:59.900Z,19.08
2023-04-07T11:41:33.896Z,19.07
2023-04-07T11:44:07.313Z,19.06
2023-04-07T11:46:53.834Z,19.03
2023-04-07T11:49:29.175Z,18.99
2023-04-07T11:52:03.153Z,18.94
2023-04-07T11:54:42.889Z,18.90
2023-04-07T11:57:15.851Z,18.86
2023-04-07T11:59:49.113Z,18.83
2023-04-07T12:02:32.302Z,18.77
2023-04-07T12:05:06.942Z,18.73
2023-04-07T12:07:40.802Z,18.69
2023-04-07T12:10:20.011Z,18.64
2023-04-07T12:12:53.546Z,18.60
2023-04-07T12:15:26.221Z,18.54
2023-04-07T12:17:59.105Z,18.47
2023-04-07T12:20:33.239Z,18.40
2023-04-07T12:23:05.942Z,18.33
2023-04-07T12:25:38.987Z,18.26
2023-04-07T12:28:11.585Z,18.18
2023-04-07T12:30:44.634Z,18.09
2023-04-07T12:33:17.373Z,17.99
2023-04-07T12:35:51.984Z,17.92
2023-04-07T12:38:24.803Z,17.84
2023-04-07T12:41:03.654Z,17.78
2023-04-07T12:43:36.544Z,17.71
2023-04-07T12:46:09.433Z,17.64
2023-04-07T12:48:42.488Z,17.56
2023-04-07T12:51:16.784Z,17.52
2023-04-07T12:53:49.817Z,17.47
2023-04-07T12:56:23.003Z,17.44
2023-04-07T12:58:55.935Z,17.39
2023-04-07T13:01:28.696Z,17.37
2023-04-07T13:04:02.107Z,17.33
2023-04-07T13:06:36.262Z,17.30
2023-04-07T13:09:08.922Z,17.26
2023-04-07T13:11:41.684Z,17.27
2023-04-07T13:14:14.323Z,17.27
2023-04-07T13:16:46.975Z,17.27
2023-04-07T13:19:19.802Z,17.28
2023-04-07T13:21:53.870Z,17.29
2023-04-07T13:24:27.387Z,17.31
2023-04-07T13:27:00.109Z,17.34
2023-04-07T13:29:32.902Z,17.36
2023-04-07T13:32:06.252Z,17.37
2023-04-07T13:34:38.895Z,17.38
2023-04-07T13:37:12.964Z,17.40
2023-04-07T13:39:45.734Z,17.40
2023-04-07T13:42:19.993Z,17.41
2023-04-07T13:44:54.582Z,17.41
2023-04-07T13:47:29.579Z,17.42
2023-04-07T13:50:02.638Z,17.41
2023-04-07T13:52:36.747Z,17.39
2023-04-07T13:55:09.958Z,17.39
2023-04-07T13:57:42.624Z,17.37
2023-04-07T14:00:15.783Z,17.34
2023-04-07T14:02:49.565Z,17.32
2023-04-07T14:05:22.649Z,17.30
2023-04-07T14:07:56.787Z,17.30
2023-04-07T14:10:29.552Z,17.32
2023-04-07T14:13:02.270Z,17.32
2023-04-07T14:15:35.192Z,17.33
2023-04-07T14:18:08.000Z,17.36
2023-04-07T14:20:41.053Z,17.37
2023-04-07T14:23:20.641Z,17.36
2023-04-07T14:25:59.462Z,17.34
2023-04-07T14:28:32.580Z,17.33
2023-04-07T14:31:05.556Z,17.29
2023-04-07T14:33:38.284Z,17.25
2023-04-07T14:36:11.307Z,17.21
2023-04-07T14:38:45.987Z,17.15
2023-04-07T14:41:18.701Z,17.08
2023-04-07T14:43:56.220Z,17.02
2023-04-07T14:46:29.011Z,16.95
2023-04-07T14:49:01.710Z,16.89
2023-04-07T14:51:34.622Z,16.82
2023-04-07T14:54:08.832Z,16.73
2023-04-07T14:56:41.500Z,16.65
2023-04-07T14:59:14.122Z,16.62
2023-04-07T15:01:46.995Z,16.56
2023-04-07T15:04:19.809Z,16.55
2023-04-07T15:06:52.594Z,16.55
2023-04-07T15:09:26.591Z,16.56
2023-04-07T15:12:00.498Z,16.56
2023-04-07T15:14:33.221Z,16.56
2023-04-07T15:17:06.034Z,16.56
2023-04-07T15:19:38.720Z,16.55
2023-04-07T15:22:11.387Z,16.53
2023-04-07T15:24:45.612Z,16.52
2023-04-07T15:27:18.938Z,16.52
2023-04-07T15:29:51.667Z,16.50
2023-04-07T15:32:24.446Z,16.50
2023-04-07T15:34:57.105Z,16.47
2023-04-07T15:37:30.050Z,16.43
2023-04-07T15:40:04.253Z,16.41
2023-04-07T15:42:41.761Z,16.34
2023-04-07T15:45:14.750Z,16.33
2023-04-07T15:47:47.467Z,16.30
2023-04-07T15:50:20.223Z,16.29
2023-04-07T15:52:53.342Z,16.27
2023-04-07T15:55:27.475Z,16.26
2023-04-07T15:58:00.373Z,16.25
2023-04-07T16:00:34.507Z,16.21
2023-04-07T16:03:07.324Z,16.21
2023-04-07T16:05:40.205Z,16.19
2023-04-07T16:08:13.938Z,16.14
2023-04-07T16:10:48.155Z,16.12
2023-04-07T16:13:21.162Z,16.12
2023-04-07T16:15:56.540Z,16.12
2023-04-07T16:18:30.280Z,16.13
2023-04-07T16:21:04.714Z,16.13
2023-04-07T16:23:37.829Z,16.14
2023-04-07T16:26:12.131Z,16.17
2023-04-07T16:28:44.827Z,16.17
2023-04-07T16:31:17.458Z,16.16
2023-04-07T16:33:51.244Z,16.14
2023-04-07T16:36:24.238Z,16.10
2023-04-07T16:38:57.677Z,16.05
2023-04-07T16:41:31.711Z,16.02
2023-04-07T16:44:04.467Z,15.95
2023-04-07T16:46:37.525Z,15.91
2023-04-07T16:49:10.862Z,15.83
2023-04-07T16:51:43.477Z,15.76
2023-04-07T16:54:16.175Z,15.69
2023-04-07T16:56:51.332Z,15.61
2023-04-07T16:59:24.112Z,15.56
2023-04-07T17:01:56.854Z,15.49
2023-04-07T17:04:29.760Z,15.44
2023-04-07T17:07:02.579Z,15.34
2023-04-07T17:09:35.930Z,15.31
2023-04-07T17:12:10.054Z,15.22
2023-04-07T17:14:42.715Z,15.14
2023-04-07T17:17:15.417Z,15.04
2023-04-07T17:19:48.392Z,14.97
2023-04-07T17:22:21.090Z,14.85
2023-04-07T17:24:53.872Z,14.75
2023-04-07T17:27:28.397Z,14.63
2023-04-07T17:30:01.167Z,14.51
2023-04-07T17:32:34.014Z,14.41
2023-04-07T17:35:07.234Z,14.31
2023-04-07T17:37:39.834Z,14.22
2023-04-07T17:40:13.093Z,14.13
2023-04-07T17:42:47.392Z,14.04
2023-04-07T17:45:20.160Z,13.95
2023-04-07T17:47:53.168Z,13.88
2023-04-07T17:50:25.915Z,13.82
2023-04-07T17:53:00.403Z,13.76
2023-04-07T17:55:33.228Z,13.68
2023-04-07T17:58:07.402Z,13.65
2023-04-07T18:00:40.097Z,13.58
2023-04-07T18:03:14.657Z,13.54
2023-04-07T18:05:47.823Z,13.51
2023-04-07T18:08:21.084Z,13.45
2023-04-07T18:10:53.722Z,13.41
2023-04-07T18:13:27.799Z,13.38
2023-04-07T18:16:00.937Z,13.35
2023-04-07T18:18:33.667Z,13.33
2023-04-07T18:21:07.100Z,13.28
2023-04-07T18:23:39.777Z,13.25
2023-04-07T18:26:12.828Z,13.21
2023-04-07T18:28:46.995Z,13.18
2023-04-07T18:31:20.216Z,13.14
2023-04-07T18:33:52.965Z,13.11
2023-04-07T18:36:27.399Z,13.06
2023-04-07T18:39:00.177Z,13.01
2023-04-07T18:41:33.296Z,12.97
2023-04-07T18:44:07.509Z,12.92
2023-04-07T18:46:40.354Z,12.87
2023-04-07T18:49:13.188Z,12.83
2023-04-07T18:51:46.946Z,12.80
2023-04-07T18:54:19.574Z,12.77
2023-04-07T18:56:52.434Z,12.72
2023-04-07T18:59:26.709Z,12.71
2023-04-07T19:01:59.645Z,12.68
2023-04-07T19:04:32.438Z,12.65
2023-04-07T19:07:05.372Z,12.63
2023-04-07T19:09:38.041Z,12.63
2023-04-07T19:12:11.403Z,12.60
2023-04-07T19:14:45.568Z,12.58
2023-04-07T19:17:18.333Z,12.55
2023-04-07T19:19:51.024Z,12.54
2023-04-07T19:22:23.741Z,12.51
2023-04-07T19:24:56.384Z,12.48
2023-04-07T19:27:29.829Z,12.46
2023-04-07T19:30:04.209Z,12.44
2023-04-07T19:32:36.880Z,12.43
2023-04-07T19:35:09.994Z,12.42
2023-04-07T19:37:42.692Z,12.39
2023-04-07T19:40:15.302Z,12.36
2023-04-07T19:42:48.053Z,12.33
2023-04-07T19:45:22.189Z,12.30
2023-04-07T19:47:55.121Z,12.27
2023-04-07T19:50:28.591Z,12.25
2023-04-07T19:53:01.531Z,12.22
2023-04-07T19:55:34.237Z,12.18
2023-04-07T19:58:06.969Z,12.15
2023-04-07T20:00:41.530Z,12.13
2023-04-07T20:03:14.432Z,12.10
2023-04-07T20:05:47.305Z,12.08
2023-04-07T20:08:19.967Z,12.07
2023-04-07T20:10:52.858Z,12.06
2023-04-07T20:13:25.671Z,12.05
2023-04-07T20:15:59.736Z,12.03
2023-04-07T20:18:32.745Z,12.00
2023-04-07T20:21:06.976Z,11.99
2023-04-07T20:23:39.682Z,11.98
2023-04-07T20:26:12.556Z,11.95
2023-04-07T20:28:45.435Z,11.94
2023-04-07T20:31:19.718Z,11.92
2023-04-07T20:33:52.823Z,11.88
2023-04-07T20:36:25.906Z,11.87
2023-04-07T20:38:58.820Z,11.81
2023-04-07T20:41:31.954Z,11.79
2023-04-07T20:44:04.726Z,11.76
2023-04-07T20:46:38.838Z,11.76
2023-04-07T20:49:11.712Z,11.75
2023-04-07T20:51:44.721Z,11.72
2023-04-07T20:54:17.588Z,11.73
2023-04-07T20:56:50.515Z,11.71
2023-04-07T20:59:23.243Z,11.72
2023-04-07T21:01:57.621Z,11.72
2023-04-07T21:04:30.946Z,11.70
2023-04-07T21:07:03.791Z,11.69
2023-04-07T21:09:36.458Z,11.70
2023-04-07T21:12:09.150Z,11.69
2023-04-07T21:14:41.978Z,11.69
2023-04-07T21:17:16.094Z,11.69
2023-04-07T21:19:49.183Z,11.69
2023-04-07T21:22:21.833Z,11.68
2023-04-07T21:24:56.164Z,11.67
2023-04-07T21:27:30.316Z,11.67
2023-04-07T21:30:04.636Z,11.65
2023-04-07T21:32:39.191Z,11.64
2023-04-07T21:35:12.749Z,11.65
2023-04-07T21:37:45.549Z,11.63
2023-04-07T21:40:18.225Z,11.63
2023-04-07T21:42:51.999Z,11.62
2023-04-07T21:45:24.705Z,11.62
2023-04-07T21:47:58.751Z,11.61
2023-04-07T21:50:31.518Z,11.60
2023-04-07T21:53:04.236Z,11.60
2023-04-07T21:55:36.994Z,11.59
2023-04-07T21:58:09.655Z,11.59
2023-04-07T22:00:42.328Z,11.59
2023-04-07T22:03:16.819Z,11.58
2023-04-07T22:05:49.772Z,11.57
2023-04-07T22:08:22.412Z,11.56
2023-04-07T22:10:55.198Z,11.55
2023-04-07T22:13:27.850Z,11.54
2023-04-07T22:16:02.272Z,11.53
2023-04-07T22:18:36.544Z,11.51
2023-04-07T22:21:09.185Z,11.50
2023-04-07T22:23:42.204Z,11.47
2023-04-07T22:26:15.355Z,11.47
2023-04-07T22:28:48.507Z,11.41
2023-04-07T22:31:21.701Z,11.38
2023-04-07T22:33:56.619Z,11.32
2023-04-07T22:36:29.774Z,11.25
2023-04-07T22:39:02.385Z,11.17
2023-04-07T22:41:35.070Z,11.10
2023-04-07T22:44:07.796Z,11.03
2023-04-07T22:46:40.537Z,10.96
2023-04-07T22:49:14.578Z,10.90
2023-04-07T22:51:48.697Z,10.83
2023-04-07T22:54:21.418Z,10.79
2023-04-07T22:56:54.147Z,10.77
2023-04-07T22:59:26.747Z,10.74
2023-04-07T23:01:59.694Z,10.73
2023-04-07T23:04:33.880Z,10.72
2023-04-07T23:07:06.824Z,10.73
2023-04-07T23:09:39.511Z,10.73
2023-04-07T23:12:12.429Z,10.74
2023-04-07T23:14:45.055Z,10.75
2023-04-07T23:17:17.775Z,10.76
2023-04-07T23:19:51.825Z,10.77
2023-04-07T23:22:24.524Z,10.79
2023-04-07T23:24:57.670Z,10.80
2023-04-07T23:27:30.437Z,10.79
2023-04-07T23:30:03.243Z,10.78
2023-04-07T23:32:36.044Z,10.78
2023-04-07T23:35:10.862Z,10.78
2023-04-07T23:37:43.938Z,10.76
2023-04-07T23:40:16.632Z,10.75
2023-04-07T23:42:49.288Z,10.76
2023-04-07T23:45:22.036Z,10.74
2023-04-07T23:47:55.006Z,10.74
2023-04-07T23:50:29.064Z,10.73
2023-04-07T23:53:01.766Z,10.73
2023-04-07T23:55:34.512Z,10.70
2023-04-07T23:58:07.195Z,10.70
